sensor_id;sensor_type;location;lat;lon;timestamp;P1;P2;P0
41382;PMS5003;27971;53.902;9.118;2022-12-20T00:05:30;10.76;9.84;
41382;PMS5003;27971;53.902;9.118;2022-12-20T00:07:33;11.18;9.35;
41382;PMS5003;27971;53.902;9.118;2022-12-20T00:09:36;8.81;7.65;
41382;PMS5003;27971;53.902;9.118;2022-12-20T00:11:38;9.94;9.23;
41382;PMS5003;27971;53.902;9.118;2022-12-20T00:13:41;11.17;9.04;
41382;PMS5003;27971;53.902;9.118;2022-12-20T00:15:44;11.15;10.23;
41382;PMS5003;27971;53.902;9.118;2022-12-20T00:17:46;10.02;9.02;
41382;PMS5003;27971;53.902;9.118;2022-12-20T00:19:49;9.6;8.99;
41382;PMS5003;27971;53.902;9.118;2022-12-20T00:21:52;9.32;8.5;
41382;PMS5003;27971;53.902;9.118;2022-12-20T00:23:55;9.75;8.75;
41382;PMS5003;27971;53.902;9.118;2022-12-20T00:26:01;8.95;8.13;
41382;PMS5003;27971;53.902;9.118;2022-12-20T00:28:00;8.88;8.26;
41382;PMS5003;27971;53.902;9.118;2022-12-20T00:30:03;9.32;8.71;
41382;PMS5003;27971;53.902;9.118;2022-12-20T00:32:05;9.07;8.89;
41382;PMS5003;27971;53.902;9.118;2022-12-20T00:34:08;9.54;8.29;
41382;PMS5003;27971;53.902;9.118;2022-12-20T00:36:11;10.24;8.85;
41382;PMS5003;27971;53.902;9.118;2022-12-20T00:38:14;10.12;9.75;
41382;PMS5003;27971;53.902;9.118;2022-12-20T00:40:17;9.88;8.95;
41382;PMS5003;27971;53.902;9.118;2022-12-20T00:42:19;9.5;8.82;
41382;PMS5003;27971;53.902;9.118;2022-12-20T00:44:22;11.96;10.55;
41382;PMS5003;27971;53.902;9.118;2022-12-20T00:46:25;9.81;9.07;
41382;PMS5003;27971;53.902;9.118;2022-12-20T00:48:29;9.33;8.18;
41382;PMS5003;27971;53.902;9.118;2022-12-20T00:50:31;10.66;9.47;
41382;PMS5003;27971;53.902;9.118;2022-12-20T00:52:34;10.29;9.07;
41382;PMS5003;27971;53.902;9.118;2022-12-20T00:54:37;9.25;8.19;
41382;PMS5003;27971;53.902;9.118;2022-12-20T00:56:40;8.86;8.06;
41382;PMS5003;27971;53.902;9.118;2022-12-20T00:58:43;8.65;7.98;
41382;PMS5003;27971;53.902;9.118;2022-12-20T01:00:46;12.54;10.69;
41382;PMS5003;27971;53.902;9.118;2022-12-20T01:02:49;9.24;7.79;
41382;PMS5003;27971;53.902;9.118;2022-12-20T01:04:52;10.63;8.93;
41382;PMS5003;27971;53.902;9.118;2022-12-20T01:06:55;9.3;8.23;
41382;PMS5003;27971;53.902;9.118;2022-12-20T01:08:57;8.39;7.75;
41382;PMS5003;27971;53.902;9.118;2022-12-20T01:11:01;9.56;7.88;
41382;PMS5003;27971;53.902;9.118;2022-12-20T01:13:04;9.35;8.45;
41382;PMS5003;27971;53.902;9.118;2022-12-20T01:15:07;10.04;9.26;
41382;PMS5003;27971;53.902;9.118;2022-12-20T01:17:09;8.4;7.87;
41382;PMS5003;27971;53.902;9.118;2022-12-20T01:19:13;9.69;8.08;
41382;PMS5003;27971;53.902;9.118;2022-12-20T01:21:15;8.96;8.85;
41382;PMS5003;27971;53.902;9.118;2022-12-20T01:23:17;6.82;6.82;
41382;PMS5003;27971;53.902;9.118;2022-12-20T01:25:20;8.25;7.08;
41382;PMS5003;27971;53.902;9.118;2022-12-20T01:27:23;7.48;7.17;
41382;PMS5003;27971;53.902;9.118;2022-12-20T01:29:26;10.44;8.25;
41382;PMS5003;27971;53.902;9.118;2022-12-20T01:31:29;10.57;8.85;
41382;PMS5003;27971;53.902;9.118;2022-12-20T01:33:31;9.0;7.75;
41382;PMS5003;27971;53.902;9.118;2022-12-20T01:35:34;8.14;6.98;
41382;PMS5003;27971;53.902;9.118;2022-12-20T01:37:37;8.49;7.9;
41382;PMS5003;27971;53.902;9.118;2022-12-20T01:39:40;8.99;8.05;
41382;PMS5003;27971;53.902;9.118;2022-12-20T01:41:44;9.9;8.74;
41382;PMS5003;27971;53.902;9.118;2022-12-20T01:43:47;10.76;9.13;
41382;PMS5003;27971;53.902;9.118;2022-12-20T01:45:49;7.99;7.51;
41382;PMS5003;27971;53.902;9.118;2022-12-20T01:47:51;8.43;7.16;
41382;PMS5003;27971;53.902;9.118;2022-12-20T01:49:54;9.9;8.9;
41382;PMS5003;27971;53.902;9.118;2022-12-20T01:51:58;8.68;8.16;
41382;PMS5003;27971;53.902;9.118;2022-12-20T01:54:01;9.18;8.6;
41382;PMS5003;27971;53.902;9.118;2022-12-20T01:56:04;8.31;7.96;
41382;PMS5003;27971;53.902;9.118;2022-12-20T01:58:07;10.4;9.44;
41382;PMS5003;27971;53.902;9.118;2022-12-20T02:00:09;9.26;8.23;
41382;PMS5003;27971;53.902;9.118;2022-12-20T02:02:12;8.48;7.78;
41382;PMS5003;27971;53.902;9.118;2022-12-20T02:04:15;8.99;8.6;
41382;PMS5003;27971;53.902;9.118;2022-12-20T02:06:19;9.43;8.23;
41382;PMS5003;27971;53.902;9.118;2022-12-20T02:08:21;8.85;8.52;
41382;PMS5003;27971;53.902;9.118;2022-12-20T02:10:26;10.31;8.77;
41382;PMS5003;27971;53.902;9.118;2022-12-20T02:12:29;8.68;8.03;
41382;PMS5003;27971;53.902;9.118;2022-12-20T02:14:34;9.19;8.08;
41382;PMS5003;27971;53.902;9.118;2022-12-20T02:16:35;9.51;7.78;
41382;PMS5003;27971;53.902;9.118;2022-12-20T02:18:37;9.38;7.92;
41382;PMS5003;27971;53.902;9.118;2022-12-20T02:20:50;8.61;7.8;
41382;PMS5003;27971;53.902;9.118;2022-12-20T02:22:46;7.46;7.13;
41382;PMS5003;27971;53.902;9.118;2022-12-20T02:24:50;9.94;8.5;
41382;PMS5003;27971;53.902;9.118;2022-12-20T02:26:58;9.86;8.65;
41382;PMS5003;27971;53.902;9.118;2022-12-20T02:28:56;9.74;8.04;
41382;PMS5003;27971;53.902;9.118;2022-12-20T02:30:55;9.72;9.19;
41382;PMS5003;27971;53.902;9.118;2022-12-20T02:32:59;8.74;7.6;
41382;PMS5003;27971;53.902;9.118;2022-12-20T02:35:01;9.49;8.74;
41382;PMS5003;27971;53.902;9.118;2022-12-20T02:37:03;8.89;8.26;
41382;PMS5003;27971;53.902;9.118;2022-12-20T02:39:05;8.62;7.1;
41382;PMS5003;27971;53.902;9.118;2022-12-20T02:41:09;7.65;7.26;
41382;PMS5003;27971;53.902;9.118;2022-12-20T02:43:11;8.36;7.66;
41382;PMS5003;27971;53.902;9.118;2022-12-20T02:45:14;9.01;8.01;
41382;PMS5003;27971;53.902;9.118;2022-12-20T02:47:17;9.78;8.71;
41382;PMS5003;27971;53.902;9.118;2022-12-20T02:49:19;7.94;7.6;
41382;PMS5003;27971;53.902;9.118;2022-12-20T02:51:22;10.34;8.28;
41382;PMS5003;27971;53.902;9.118;2022-12-20T02:53:24;8.8;8.49;
41382;PMS5003;27971;53.902;9.118;2022-12-20T02:55:30;8.72;8.09;
41382;PMS5003;27971;53.902;9.118;2022-12-20T02:57:31;7.9;7.35;
41382;PMS5003;27971;53.902;9.118;2022-12-20T02:59:33;7.65;6.52;
41382;PMS5003;27971;53.902;9.118;2022-12-20T03:01:35;9.08;8.12;
41382;PMS5003;27971;53.902;9.118;2022-12-20T03:03:36;7.9;7.3;
41382;PMS5003;27971;53.902;9.118;2022-12-20T03:05:42;8.54;7.63;
41382;PMS5003;27971;53.902;9.118;2022-12-20T03:07:42;8.4;7.55;
41382;PMS5003;27971;53.902;9.118;2022-12-20T03:09:44;8.7;7.6;
41382;PMS5003;27971;53.902;9.118;2022-12-20T03:11:47;8.32;7.03;
41382;PMS5003;27971;53.902;9.118;2022-12-20T03:13:49;8.42;7.72;
41382;PMS5003;27971;53.902;9.118;2022-12-20T03:15:51;7.7;6.44;
41382;PMS5003;27971;53.902;9.118;2022-12-20T03:17:54;6.4;5.86;
41382;PMS5003;27971;53.902;9.118;2022-12-20T03:19:56;7.83;6.87;
41382;PMS5003;27971;53.902;9.118;2022-12-20T03:21:58;7.46;7.08;
41382;PMS5003;27971;53.902;9.118;2022-12-20T03:24:01;8.88;8.42;
41382;PMS5003;27971;53.902;9.118;2022-12-20T03:26:03;8.31;6.81;
41382;PMS5003;27971;53.902;9.118;2022-12-20T03:28:05;7.29;7.18;
41382;PMS5003;27971;53.902;9.118;2022-12-20T03:30:08;9.66;9.02;
41382;PMS5003;27971;53.902;9.118;2022-12-20T03:32:11;7.82;6.99;
41382;PMS5003;27971;53.902;9.118;2022-12-20T03:34:13;8.89;7.73;
41382;PMS5003;27971;53.902;9.118;2022-12-20T03:36:15;8.06;7.56;
41382;PMS5003;27971;53.902;9.118;2022-12-20T03:38:18;7.72;6.78;
41382;PMS5003;27971;53.902;9.118;2022-12-20T03:40:20;7.32;6.58;
41382;PMS5003;27971;53.902;9.118;2022-12-20T03:42:23;8.44;7.3;
41382;PMS5003;27971;53.902;9.118;2022-12-20T03:44:26;8.42;7.7;
41382;PMS5003;27971;53.902;9.118;2022-12-20T03:46:29;7.79;7.1;
41382;PMS5003;27971;53.902;9.118;2022-12-20T03:48:32;8.79;7.96;
41382;PMS5003;27971;53.902;9.118;2022-12-20T03:50:34;8.39;7.39;
41382;PMS5003;27971;53.902;9.118;2022-12-20T03:52:37;7.04;6.76;
41382;PMS5003;27971;53.902;9.118;2022-12-20T03:54:40;9.29;7.49;
41382;PMS5003;27971;53.902;9.118;2022-12-20T03:56:43;8.77;7.08;
41382;PMS5003;27971;53.902;9.118;2022-12-20T03:58:46;7.6;7.01;
41382;PMS5003;27971;53.902;9.118;2022-12-20T04:00:48;6.54;6.27;
41382;PMS5003;27971;53.902;9.118;2022-12-20T04:02:51;7.65;7.06;
41382;PMS5003;27971;53.902;9.118;2022-12-20T04:04:54;8.26;6.81;
41382;PMS5003;27971;53.902;9.118;2022-12-20T04:06:56;7.11;6.95;
41382;PMS5003;27971;53.902;9.118;2022-12-20T04:08:59;8.68;8.02;
41382;PMS5003;27971;53.902;9.118;2022-12-20T04:11:01;8.81;7.48;
41382;PMS5003;27971;53.902;9.118;2022-12-20T04:13:04;6.24;5.88;
41382;PMS5003;27971;53.902;9.118;2022-12-20T04:15:07;7.05;6.77;
41382;PMS5003;27971;53.902;9.118;2022-12-20T04:17:09;7.23;6.41;
41382;PMS5003;27971;53.902;9.118;2022-12-20T04:19:12;7.67;7.6;
41382;PMS5003;27971;53.902;9.118;2022-12-20T04:21:14;8.89;7.5;
41382;PMS5003;27971;53.902;9.118;2022-12-20T04:23:18;7.37;7.19;
41382;PMS5003;27971;53.902;9.118;2022-12-20T04:25:21;6.35;6.06;
41382;PMS5003;27971;53.902;9.118;2022-12-20T04:27:23;7.61;6.43;
41382;PMS5003;27971;53.902;9.118;2022-12-20T04:29:26;7.75;7.29;
41382;PMS5003;27971;53.902;9.118;2022-12-20T04:31:29;8.18;6.79;
41382;PMS5003;27971;53.902;9.118;2022-12-20T04:33:31;6.61;5.79;
41382;PMS5003;27971;53.902;9.118;2022-12-20T04:35:35;7.57;6.79;
41382;PMS5003;27971;53.902;9.118;2022-12-20T04:37:37;7.41;6.65;
41382;PMS5003;27971;53.902;9.118;2022-12-20T04:39:40;7.21;6.69;
41382;PMS5003;27971;53.902;9.118;2022-12-20T04:41:42;8.26;7.4;
41382;PMS5003;27971;53.902;9.118;2022-12-20T04:43:45;7.38;6.58;
41382;PMS5003;27971;53.902;9.118;2022-12-20T04:45:48;7.57;6.57;
41382;PMS5003;27971;53.902;9.118;2022-12-20T04:47:50;6.73;5.7;
41382;PMS5003;27971;53.902;9.118;2022-12-20T04:49:53;8.24;6.92;
41382;PMS5003;27971;53.902;9.118;2022-12-20T04:51:56;7.14;6.69;
41382;PMS5003;27971;53.902;9.118;2022-12-20T04:53:59;7.48;6.86;
41382;PMS5003;27971;53.902;9.118;2022-12-20T04:56:02;8.15;6.12;
41382;PMS5003;27971;53.902;9.118;2022-12-20T04:58:05;7.43;6.96;
41382;PMS5003;27971;53.902;9.118;2022-12-20T05:00:09;6.4;6.13;
41382;PMS5003;27971;53.902;9.118;2022-12-20T05:02:11;6.82;6.39;
41382;PMS5003;27971;53.902;9.118;2022-12-20T05:04:14;7.2;6.31;
41382;PMS5003;27971;53.902;9.118;2022-12-20T05:06:17;6.38;6.35;
41382;PMS5003;27971;53.902;9.118;2022-12-20T05:08:20;7.11;6.43;
41382;PMS5003;27971;53.902;9.118;2022-12-20T05:10:22;6.9;6.07;
41382;PMS5003;27971;53.902;9.118;2022-12-20T05:12:25;6.64;6.54;
41382;PMS5003;27971;53.902;9.118;2022-12-20T05:14:28;6.87;6.38;
41382;PMS5003;27971;53.902;9.118;2022-12-20T05:16:31;7.87;7.23;
41382;PMS5003;27971;53.902;9.118;2022-12-20T05:18:34;6.76;6.24;
41382;PMS5003;27971;53.902;9.118;2022-12-20T05:20:37;6.7;5.77;
41382;PMS5003;27971;53.902;9.118;2022-12-20T05:22:40;6.39;5.32;
41382;PMS5003;27971;53.902;9.118;2022-12-20T05:24:43;6.95;6.6;
41382;PMS5003;27971;53.902;9.118;2022-12-20T05:26:46;6.81;6.42;
41382;PMS5003;27971;53.902;9.118;2022-12-20T05:28:49;7.74;6.67;
41382;PMS5003;27971;53.902;9.118;2022-12-20T05:30:52;6.58;5.4;
41382;PMS5003;27971;53.902;9.118;2022-12-20T05:32:55;6.77;5.95;
41382;PMS5003;27971;53.902;9.118;2022-12-20T05:34:58;7.87;6.92;
41382;PMS5003;27971;53.902;9.118;2022-12-20T05:37:01;6.58;6.06;
41382;PMS5003;27971;53.902;9.118;2022-12-20T05:39:03;6.1;5.36;
41382;PMS5003;27971;53.902;9.118;2022-12-20T05:41:06;7.68;6.76;
41382;PMS5003;27971;53.902;9.118;2022-12-20T05:43:09;6.94;6.38;
41382;PMS5003;27971;53.902;9.118;2022-12-20T05:45:11;7.1;6.22;
41382;PMS5003;27971;53.902;9.118;2022-12-20T05:47:14;6.68;6.12;
41382;PMS5003;27971;53.902;9.118;2022-12-20T05:49:17;5.56;5.19;
41382;PMS5003;27971;53.902;9.118;2022-12-20T05:51:20;5.79;5.71;
41382;PMS5003;27971;53.902;9.118;2022-12-20T05:53:23;6.5;5.9;
41382;PMS5003;27971;53.902;9.118;2022-12-20T05:55:33;7.59;6.47;
41382;PMS5003;27971;53.902;9.118;2022-12-20T05:57:30;7.15;6.46;
41382;PMS5003;27971;53.902;9.118;2022-12-20T05:59:33;6.31;5.7;
41382;PMS5003;27971;53.902;9.118;2022-12-20T06:01:36;7.73;6.48;
41382;PMS5003;27971;53.902;9.118;2022-12-20T06:03:39;6.4;5.87;
41382;PMS5003;27971;53.902;9.118;2022-12-20T06:05:43;6.62;5.51;
41382;PMS5003;27971;53.902;9.118;2022-12-20T06:07:46;8.24;6.65;
41382;PMS5003;27971;53.902;9.118;2022-12-20T06:09:50;5.12;4.8;
41382;PMS5003;27971;53.902;9.118;2022-12-20T06:11:52;5.06;4.92;
41382;PMS5003;27971;53.902;9.118;2022-12-20T06:13:55;7.02;6.1;
41382;PMS5003;27971;53.902;9.118;2022-12-20T06:15:58;6.23;5.31;
41382;PMS5003;27971;53.902;9.118;2022-12-20T06:18:01;6.11;5.89;
41382;PMS5003;27971;53.902;9.118;2022-12-20T06:20:04;5.17;4.53;
41382;PMS5003;27971;53.902;9.118;2022-12-20T06:22:07;6.67;6.12;
41382;PMS5003;27971;53.902;9.118;2022-12-20T06:24:10;6.71;5.26;
41382;PMS5003;27971;53.902;9.118;2022-12-20T06:26:13;7.61;6.68;
41382;PMS5003;27971;53.902;9.118;2022-12-20T06:28:16;7.04;6.12;
41382;PMS5003;27971;53.902;9.118;2022-12-20T06:30:19;6.21;5.13;
41382;PMS5003;27971;53.902;9.118;2022-12-20T06:32:23;5.73;5.67;
41382;PMS5003;27971;53.902;9.118;2022-12-20T06:34:25;7.08;6.07;
41382;PMS5003;27971;53.902;9.118;2022-12-20T06:36:28;8.46;6.25;
41382;PMS5003;27971;53.902;9.118;2022-12-20T06:38:32;7.44;5.99;
41382;PMS5003;27971;53.902;9.118;2022-12-20T06:40:35;7.31;6.43;
41382;PMS5003;27971;53.902;9.118;2022-12-20T06:42:38;6.23;5.86;
41382;PMS5003;27971;53.902;9.118;2022-12-20T06:44:41;6.98;5.65;
41382;PMS5003;27971;53.902;9.118;2022-12-20T06:46:44;7.08;6.48;
41382;PMS5003;27971;53.902;9.118;2022-12-20T06:48:47;6.21;5.51;
41382;PMS5003;27971;53.902;9.118;2022-12-20T06:50:50;6.94;6.39;
41382;PMS5003;27971;53.902;9.118;2022-12-20T06:52:54;6.96;5.62;
41382;PMS5003;27971;53.902;9.118;2022-12-20T06:54:57;6.74;5.83;
41382;PMS5003;27971;53.902;9.118;2022-12-20T06:57:00;5.96;5.58;
41382;PMS5003;27971;53.902;9.118;2022-12-20T06:59:03;6.29;5.69;
41382;PMS5003;27971;53.902;9.118;2022-12-20T07:01:06;7.76;6.05;
41382;PMS5003;27971;53.902;9.118;2022-12-20T07:03:10;6.58;5.98;
41382;PMS5003;27971;53.902;9.118;2022-12-20T07:05:13;6.31;5.12;
41382;PMS5003;27971;53.902;9.118;2022-12-20T07:07:16;6.49;6.18;
41382;PMS5003;27971;53.902;9.118;2022-12-20T07:09:19;7.83;6.33;
41382;PMS5003;27971;53.902;9.118;2022-12-20T07:11:22;6.21;5.82;
41382;PMS5003;27971;53.902;9.118;2022-12-20T07:13:25;4.4;4.4;
41382;PMS5003;27971;53.902;9.118;2022-12-20T07:15:28;6.1;5.6;
41382;PMS5003;27971;53.902;9.118;2022-12-20T07:17:31;6.92;5.81;
41382;PMS5003;27971;53.902;9.118;2022-12-20T07:19:34;5.54;5.39;
41382;PMS5003;27971;53.902;9.118;2022-12-20T07:21:37;6.25;6.1;
41382;PMS5003;27971;53.902;9.118;2022-12-20T07:23:40;6.04;5.44;
41382;PMS5003;27971;53.902;9.118;2022-12-20T07:25:42;5.56;5.2;
41382;PMS5003;27971;53.902;9.118;2022-12-20T07:27:45;5.94;5.37;
41382;PMS5003;27971;53.902;9.118;2022-12-20T07:29:49;5.86;5.35;
41382;PMS5003;27971;53.902;9.118;2022-12-20T07:31:51;6.16;5.34;
41382;PMS5003;27971;53.902;9.118;2022-12-20T07:33:53;6.64;5.86;
41382;PMS5003;27971;53.902;9.118;2022-12-20T07:35:58;5.38;4.99;
41382;PMS5003;27971;53.902;9.118;2022-12-20T07:37:59;5.66;5.44;
41382;PMS5003;27971;53.902;9.118;2022-12-20T07:40:02;5.17;4.63;
41382;PMS5003;27971;53.902;9.118;2022-12-20T07:42:04;6.99;6.63;
41382;PMS5003;27971;53.902;9.118;2022-12-20T07:44:07;5.54;5.54;
41382;PMS5003;27971;53.902;9.118;2022-12-20T07:46:11;6.65;6.01;
41382;PMS5003;27971;53.902;9.118;2022-12-20T07:48:12;6.65;5.96;
41382;PMS5003;27971;53.902;9.118;2022-12-20T07:50:15;5.88;5.64;
41382;PMS5003;27971;53.902;9.118;2022-12-20T07:52:18;6.29;6.1;
41382;PMS5003;27971;53.902;9.118;2022-12-20T07:54:21;8.0;6.7;
41382;PMS5003;27971;53.902;9.118;2022-12-20T07:56:23;6.84;6.72;
41382;PMS5003;27971;53.902;9.118;2022-12-20T07:58:27;6.67;5.52;
41382;PMS5003;27971;53.902;9.118;2022-12-20T08:00:30;6.18;5.25;
41382;PMS5003;27971;53.902;9.118;2022-12-20T08:02:34;8.07;6.11;
41382;PMS5003;27971;53.902;9.118;2022-12-20T08:04:36;6.35;5.69;
41382;PMS5003;27971;53.902;9.118;2022-12-20T08:06:38;6.4;5.77;
41382;PMS5003;27971;53.902;9.118;2022-12-20T08:08:42;6.94;6.08;
41382;PMS5003;27971;53.902;9.118;2022-12-20T08:10:44;6.05;5.66;
41382;PMS5003;27971;53.902;9.118;2022-12-20T08:12:46;5.73;5.07;
41382;PMS5003;27971;53.902;9.118;2022-12-20T08:14:50;7.48;6.5;
41382;PMS5003;27971;53.902;9.118;2022-12-20T08:16:52;5.58;5.12;
41382;PMS5003;27971;53.902;9.118;2022-12-20T08:18:56;6.78;5.59;
41382;PMS5003;27971;53.902;9.118;2022-12-20T08:20:58;5.58;5.15;
41382;PMS5003;27971;53.902;9.118;2022-12-20T08:23:01;6.83;6.26;
41382;PMS5003;27971;53.902;9.118;2022-12-20T08:25:04;6.36;6.05;
41382;PMS5003;27971;53.902;9.118;2022-12-20T08:27:07;6.33;5.45;
41382;PMS5003;27971;53.902;9.118;2022-12-20T08:29:10;5.73;5.45;
41382;PMS5003;27971;53.902;9.118;2022-12-20T08:31:13;6.22;5.55;
41382;PMS5003;27971;53.902;9.118;2022-12-20T08:33:16;5.74;5.49;
41382;PMS5003;27971;53.902;9.118;2022-12-20T08:35:18;6.11;4.9;
41382;PMS5003;27971;53.902;9.118;2022-12-20T08:37:21;7.36;6.26;
41382;PMS5003;27971;53.902;9.118;2022-12-20T08:39:24;5.69;5.19;
41382;PMS5003;27971;53.902;9.118;2022-12-20T08:41:27;5.02;4.82;
41382;PMS5003;27971;53.902;9.118;2022-12-20T08:43:30;6.7;5.33;
41382;PMS5003;27971;53.902;9.118;2022-12-20T08:45:33;6.24;5.67;
41382;PMS5003;27971;53.902;9.118;2022-12-20T08:47:35;5.82;5.44;
41382;PMS5003;27971;53.902;9.118;2022-12-20T08:49:38;5.98;5.71;
41382;PMS5003;27971;53.902;9.118;2022-12-20T08:51:41;6.2;5.52;
41382;PMS5003;27971;53.902;9.118;2022-12-20T08:53:44;4.82;4.15;
41382;PMS5003;27971;53.902;9.118;2022-12-20T08:55:46;6.2;5.19;
41382;PMS5003;27971;53.902;9.118;2022-12-20T08:57:49;5.88;5.62;
41382;PMS5003;27971;53.902;9.118;2022-12-20T08:59:52;6.11;4.36;
41382;PMS5003;27971;53.902;9.118;2022-12-20T09:01:54;5.85;5.27;
41382;PMS5003;27971;53.902;9.118;2022-12-20T09:03:57;6.08;5.39;
41382;PMS5003;27971;53.902;9.118;2022-12-20T09:05:59;6.18;5.29;
41382;PMS5003;27971;53.902;9.118;2022-12-20T09:08:02;6.5;5.39;
41382;PMS5003;27971;53.902;9.118;2022-12-20T09:10:06;6.36;5.5;
41382;PMS5003;27971;53.902;9.118;2022-12-20T09:12:11;6.49;5.64;
41382;PMS5003;27971;53.902;9.118;2022-12-20T09:14:11;4.51;3.88;
41382;PMS5003;27971;53.902;9.118;2022-12-20T09:16:14;4.69;4.19;
41382;PMS5003;27971;53.902;9.118;2022-12-20T09:18:15;6.22;5.66;
41382;PMS5003;27971;53.902;9.118;2022-12-20T09:20:18;5.49;5.2;
41382;PMS5003;27971;53.902;9.118;2022-12-20T09:22:21;6.24;5.65;
41382;PMS5003;27971;53.902;9.118;2022-12-20T09:24:24;5.77;4.62;
41382;PMS5003;27971;53.902;9.118;2022-12-20T09:26:27;5.17;4.88;
41382;PMS5003;27971;53.902;9.118;2022-12-20T09:28:29;5.79;5.26;
41382;PMS5003;27971;53.902;9.118;2022-12-20T09:30:32;5.02;4.56;
41382;PMS5003;27971;53.902;9.118;2022-12-20T09:32:35;5.25;4.68;
41382;PMS5003;27971;53.902;9.118;2022-12-20T09:34:38;5.89;5.23;
41382;PMS5003;27971;53.902;9.118;2022-12-20T09:36:40;5.05;4.6;
41382;PMS5003;27971;53.902;9.118;2022-12-20T09:38:43;4.2;4.05;
41382;PMS5003;27971;53.902;9.118;2022-12-20T09:40:46;5.95;5.11;
41382;PMS5003;27971;53.902;9.118;2022-12-20T09:42:49;6.98;6.28;
41382;PMS5003;27971;53.902;9.118;2022-12-20T09:45:00;6.27;5.24;
41382;PMS5003;27971;53.902;9.118;2022-12-20T09:46:56;6.97;5.95;
41382;PMS5003;27971;53.902;9.118;2022-12-20T09:48:58;9.62;6.77;
41382;PMS5003;27971;53.902;9.118;2022-12-20T09:51:06;6.6;5.57;
41382;PMS5003;27971;53.902;9.118;2022-12-20T09:53:08;7.15;6.54;
41382;PMS5003;27971;53.902;9.118;2022-12-20T09:55:11;8.64;7.76;
41382;PMS5003;27971;53.902;9.118;2022-12-20T09:57:13;8.23;7.47;
41382;PMS5003;27971;53.902;9.118;2022-12-20T09:59:13;6.33;5.56;
41382;PMS5003;27971;53.902;9.118;2022-12-20T10:01:18;8.84;7.5;
41382;PMS5003;27971;53.902;9.118;2022-12-20T10:03:19;7.16;6.64;
41382;PMS5003;27971;53.902;9.118;2022-12-20T10:05:22;8.3;6.72;
41382;PMS5003;27971;53.902;9.118;2022-12-20T10:07:28;9.1;6.86;
41382;PMS5003;27971;53.902;9.118;2022-12-20T10:09:33;9.35;7.55;
41382;PMS5003;27971;53.902;9.118;2022-12-20T10:11:35;7.82;5.96;
41382;PMS5003;27971;53.902;9.118;2022-12-20T10:13:34;8.66;7.13;
41382;PMS5003;27971;53.902;9.118;2022-12-20T10:15:36;10.8;8.45;
41382;PMS5003;27971;53.902;9.118;2022-12-20T10:17:41;8.84;7.29;
41382;PMS5003;27971;53.902;9.118;2022-12-20T10:19:51;9.73;8.64;
41382;PMS5003;27971;53.902;9.118;2022-12-20T10:21:45;10.0;8.39;
41382;PMS5003;27971;53.902;9.118;2022-12-20T10:23:50;8.78;8.12;
41382;PMS5003;27971;53.902;9.118;2022-12-20T10:25:50;10.22;9.16;
41382;PMS5003;27971;53.902;9.118;2022-12-20T10:27:53;11.9;10.12;
41382;PMS5003;27971;53.902;9.118;2022-12-20T10:29:55;10.94;8.4;
41382;PMS5003;27971;53.902;9.118;2022-12-20T10:31:58;9.92;7.83;
41382;PMS5003;27971;53.902;9.118;2022-12-20T10:34:01;10.36;9.04;
41382;PMS5003;27971;53.902;9.118;2022-12-20T10:36:16;10.52;8.64;
41382;PMS5003;27971;53.902;9.118;2022-12-20T10:38:08;9.63;8.19;
41382;PMS5003;27971;53.902;9.118;2022-12-20T10:40:13;10.64;8.16;
41382;PMS5003;27971;53.902;9.118;2022-12-20T10:42:22;11.64;9.38;
41382;PMS5003;27971;53.902;9.118;2022-12-20T10:44:17;10.09;7.85;
41382;PMS5003;27971;53.902;9.118;2022-12-20T10:46:19;10.35;8.7;
41382;PMS5003;27971;53.902;9.118;2022-12-20T10:48:24;8.79;7.7;
41382;PMS5003;27971;53.902;9.118;2022-12-20T10:50:25;9.1;8.3;
41382;PMS5003;27971;53.902;9.118;2022-12-20T10:52:27;9.29;7.36;
41382;PMS5003;27971;53.902;9.118;2022-12-20T10:54:32;9.03;7.83;
41382;PMS5003;27971;53.902;9.118;2022-12-20T10:56:34;11.38;9.3;
41382;PMS5003;27971;53.902;9.118;2022-12-20T10:58:36;11.86;9.41;
41382;PMS5003;27971;53.902;9.118;2022-12-20T11:00:39;10.4;8.54;
41382;PMS5003;27971;53.902;9.118;2022-12-20T11:02:42;10.0;8.67;
41382;PMS5003;27971;53.902;9.118;2022-12-20T11:04:48;10.08;7.5;
41382;PMS5003;27971;53.902;9.118;2022-12-20T11:06:49;9.95;8.21;
41382;PMS5003;27971;53.902;9.118;2022-12-20T11:08:52;9.6;8.0;
41382;PMS5003;27971;53.902;9.118;2022-12-20T11:11:11;10.7;8.29;
41382;PMS5003;27971;53.902;9.118;2022-12-20T11:12:58;10.32;9.13;
41382;PMS5003;27971;53.902;9.118;2022-12-20T11:15:07;9.58;8.75;
41382;PMS5003;27971;53.902;9.118;2022-12-20T11:17:03;11.61;8.35;
41382;PMS5003;27971;53.902;9.118;2022-12-20T11:19:09;8.84;8.0;
41382;PMS5003;27971;53.902;9.118;2022-12-20T11:21:12;10.58;7.7;
41382;PMS5003;27971;53.902;9.118;2022-12-20T11:23:14;13.04;9.88;
41382;PMS5003;27971;53.902;9.118;2022-12-20T11:25:27;10.58;8.9;
41382;PMS5003;27971;53.902;9.118;2022-12-20T11:27:19;12.11;9.53;
41382;PMS5003;27971;53.902;9.118;2022-12-20T11:29:24;10.95;8.53;
41382;PMS5003;27971;53.902;9.118;2022-12-20T11:31:24;10.32;8.44;
41382;PMS5003;27971;53.902;9.118;2022-12-20T11:33:30;7.97;7.2;
41382;PMS5003;27971;53.902;9.118;2022-12-20T11:35:29;9.81;9.09;
41382;PMS5003;27971;53.902;9.118;2022-12-20T11:37:31;11.3;8.87;
41382;PMS5003;27971;53.902;9.118;2022-12-20T11:39:36;10.72;8.41;
41382;PMS5003;27971;53.902;9.118;2022-12-20T11:41:37;10.02;9.05;
41382;PMS5003;27971;53.902;9.118;2022-12-20T11:43:44;10.75;9.48;
41382;PMS5003;27971;53.902;9.118;2022-12-20T11:45:43;10.25;7.87;
41382;PMS5003;27971;53.902;9.118;2022-12-20T11:47:51;9.5;7.04;
41382;PMS5003;27971;53.902;9.118;2022-12-20T11:49:52;9.03;8.05;
41382;PMS5003;27971;53.902;9.118;2022-12-20T11:51:52;9.12;7.76;
41382;PMS5003;27971;53.902;9.118;2022-12-20T11:53:55;8.9;7.71;
41382;PMS5003;27971;53.902;9.118;2022-12-20T11:55:58;8.4;7.07;
41382;PMS5003;27971;53.902;9.118;2022-12-20T11:58:00;9.18;7.31;
41382;PMS5003;27971;53.902;9.118;2022-12-20T12:00:02;9.59;8.59;
41382;PMS5003;27971;53.902;9.118;2022-12-20T12:02:07;8.87;7.94;
41382;PMS5003;27971;53.902;9.118;2022-12-20T12:04:09;11.29;10.13;
41382;PMS5003;27971;53.902;9.118;2022-12-20T12:06:10;10.72;9.58;
41382;PMS5003;27971;53.902;9.118;2022-12-20T12:08:13;6.77;6.01;
41382;PMS5003;27971;53.902;9.118;2022-12-20T12:10:16;11.52;10.18;
41382;PMS5003;27971;53.902;9.118;2022-12-20T12:12:20;10.5;8.08;
41382;PMS5003;27971;53.902;9.118;2022-12-20T12:14:25;9.85;8.66;
41382;PMS5003;27971;53.902;9.118;2022-12-20T12:16:24;9.41;8.2;
41382;PMS5003;27971;53.902;9.118;2022-12-20T12:18:26;9.78;8.19;
41382;PMS5003;27971;53.902;9.118;2022-12-20T12:20:30;9.22;7.65;
41382;PMS5003;27971;53.902;9.118;2022-12-20T12:22:31;11.83;9.11;
41382;PMS5003;27971;53.902;9.118;2022-12-20T12:24:34;8.94;7.42;
41382;PMS5003;27971;53.902;9.118;2022-12-20T12:26:37;8.48;6.99;
41382;PMS5003;27971;53.902;9.118;2022-12-20T12:28:40;8.2;7.18;
41382;PMS5003;27971;53.902;9.118;2022-12-20T12:30:43;10.74;9.63;
41382;PMS5003;27971;53.902;9.118;2022-12-20T12:32:46;11.47;8.25;
41382;PMS5003;27971;53.902;9.118;2022-12-20T12:34:52;10.47;8.27;
41382;PMS5003;27971;53.902;9.118;2022-12-20T12:36:58;10.19;8.06;
41382;PMS5003;27971;53.902;9.118;2022-12-20T12:39:01;6.88;5.84;
41382;PMS5003;27971;53.902;9.118;2022-12-20T12:41:04;8.42;5.92;
41382;PMS5003;27971;53.902;9.118;2022-12-20T12:44:01;7.48;6.61;
41382;PMS5003;27971;53.902;9.118;2022-12-20T12:45:04;8.04;7.25;
41382;PMS5003;27971;53.902;9.118;2022-12-20T12:47:10;11.17;7.57;
41382;PMS5003;27971;53.902;9.118;2022-12-20T12:49:09;10.27;7.88;